默认 日期 大小 文件数 浏览量 最新下载 xml
terra磁力链接相关资源由用户搜索指令自动获取,结果来源于网络,本站不存储任何资料,亦不承担任何责任,请于24小时内删除,搜索到4964个磁力,显示前4000条数据,用时4ms。
    {"BLUDV.COM.png": 397035, "BLUDV ACESSE.url": 110, "O.Dia.em.que.a.Terra.Parou.2008.720p.BluRay.x264.DUAL-BLUDV.mkv": 935677753, "O.Dia.em.que.a.Terra.Parou.2008.720p.BluRay.x264.DUAL-BLUDV.srt": 86329}
创建时间: 2018-12-07 23:08:45 大小:892.79 MB 文件数量:4 热度:6 最近下载:2025-02-23 21:39:03
    {"Lucas Firmo UPLOADER.mp4": 1084536, "Terra Estranha 1080p (2017) Dublado BluRay -- By - Lucas Firmo.mp4": 1801805086}
创建时间: 2018-12-08 00:33:59 大小:1.68 GB 文件数量:2 热度:7 最近下载:2024-12-06 09:52:02
    ... - Clique Aqui!.txt": 746, "A.Terra.Prometida.2016.E010.720pMINI.HDTV ... .x264-BRadical.mkv": 1296597732, "A.Terra.Prometida.2016.E010.720pMINI.HDTV ... .x264BRadical_meta.xml": 781, "A.Terra.Prometida.2016.E010.720pMINI.HDTV ...
创建时间: 2018-12-08 03:05:10 大小:1.21 GB 文件数量:4 热度:13 最近下载:2025-08-06 05:37:04
    {"terranova.jpg": 157718, "Tribe_-_Terra_Nova_-_Sim.mp3": 3931523, "Tribe_-_Terra_Nova_-_Karros.mp3": 3676668, "Tribe_-_Terra_Nova_-_Prison.mp3": 3388694, "Tribe_-_Terra_Nova_-_Newhope.mp3": 4055340, "Tribe_-_Terra_Nova_-_Radioroom.mp3": 833291, "Tribe_- ...
创建时间: 2018-12-08 07:58:31 大小:21.35 MB 文件数量:8 热度:7 最近下载:2024-08-24 00:50:02
    {"RARBG.txt": 30, "fho.17.12.23.sybil.kailena.kristin.black.kathy.anderson.and.terra.twain.mp4": 1075586574, "fho.17.12.23.sybil.kailena.kristin.black.kathy.anderson.and.terra.twain.nfo": 5237}
创建时间: 2018-12-08 11:22:27 大小:1 GB 文件数量:3 热度:223 最近下载:2025-10-08 23:02:19
    {"Deadly.Women.S08E16.Scorned.720p.HDTV.x264-TERRA.mkv": 1054480942, "deadly.women.s08e16.scorned.720p.hdtv.x264-terra.nfo": 5116}
创建时间: 2018-12-08 11:37:09 大小:1005.64 MB 文件数量:2 热度:13 最近下载:2025-06-21 10:57:01
    {"RARBG.txt": 30, "lsb.17.04.02.terra.twain.and.kira.zen.mp4": 1114682651, "lsb.17.04.02.terra.twain.and.kira.zen.nfo": 5191}
创建时间: 2018-12-08 12:19:42 大小:1.04 GB 文件数量:3 热度:16 最近下载:2025-01-27 08:07:02
    {"203__DSC2268.jpg": 200037, "182_DGyI5quXUAAIGGd.jpg": 172656, "202_CRyeB8GUYAAtbyW.jpg": 69231, "365_women_of_con_0026.jpg": 186747, "079_Geokinetic_716519944.jpg": 511135, "080_Geokinetic_717520945.jpg": 374763, "081_Geokinetic_718521946.jpg": 340790, " ...
创建时间: 2018-12-08 17:01:42 大小:528.77 MB 文件数量:378 热度:13 最近下载:2025-10-15 03:47:01
    {"RARBG.com.txt": 34, "ppu.14.09.28.terra.sweet.euro.babe.works.the.cock.mp4": 4084055054, "ppu.14.09.28.terra.sweet.euro.babe.works.the.cock.nfo": 7001}
创建时间: 2018-12-08 17:32:13 大小:3.8 GB 文件数量:3 热度:23 最近下载:2025-05-16 23:31:02
    {"Terra.Estranha.2017.720p.BluRay.x264.DUAL-TDF.mkv": 1015468573, "Terra.Estranha.2017.720p.BluRay.x264.DUAL-TDF.srt": 64154}
创建时间: 2018-12-08 18:27:55 大小:968.49 MB 文件数量:2 热度:16 最近下载:2023-03-03 18:20:06
    {"pdalife.url": 176, "32119-Terra-M-v1-4-5-cache-Pdalife.ru.zip": 2091620383}
创建时间: 2018-12-08 18:33:01 大小:1.95 GB 文件数量:2 热度:6 最近下载:2023-03-03 18:20:02
    ... Digital) (LostNerevarine-Empire).cbz": 471061965, "Terra Formars v07 (2015) (Digital) ( ... LostNerevarine-Empire).cbz": 492437803, "Terra Formars v08 (2015) (Digital) ( ... LostNerevarine-Empire).cbz": 519063870, "Terra Formars v10 (2016) (Digital) ( ...
创建时间: 2018-12-08 20:34:35 大小:5.81 GB 文件数量:13 热度:10 最近下载:2025-01-21 08:57:01
    ... .mp3": 9590625, "03. Juliette Lewis - Terra Incognita - PANiC.mp3": 6583827, "08 ...
创建时间: 2018-12-09 07:27:30 大小:85.96 MB 文件数量:16 热度:5 最近下载:2024-12-26 05:02:26
    {"Thumbs.db": 34816, "Ossa Della Terra - Michael Swanwick.epub": 296248, "Ossa Della Terra - Michael Swanwick.mobi": 1218152}
创建时间: 2018-12-09 11:20:47 大小:1.48 MB 文件数量:3 热度:14 最近下载:2025-09-14 05:19:02
    {"Margaret Way - Terra Selvaggia (Ita Libro).pdf": 458974, "Margaret Way - Terra Selvaggia (Ita Libro).epub": 422534, "Margaret Way - Terra Selvaggia (Ita Libro).mobi": 523842}
创建时间: 2018-12-09 11:34:35 大小:1.34 MB 文件数量:3 热度:7 最近下载:2024-11-21 13:56:02
    ... LostFilm.TV.mkv": 3050450959, "Terra.Nova.s01e02.720p.rus.LostFilm ... .TV.mkv": 1515402936, "Terra.Nova.s01e03.720p.rus.LostFilm ... .TV.mkv": 1593015527, "Terra.Nova.s01e04.720p.rus.LostFilm ... .TV.mkv": 1640730403, "Terra.Nova.s01e05.720p.rus.LostFilm ...
创建时间: 2018-12-09 13:55:34 大小:18.95 GB 文件数量:12 热度:8 最近下载:2022-04-23 06:57:17
    ... .moguls.return.720p.hdtv.x264-terra-s.mkv": 30453199}, "RARBG.com ... .Moguls.Return.720p.HDTV.x264-TERRA.mkv": 566691570, "storage.wars.s05e22 ... .moguls.return.720p.hdtv.x264-terra.nfo": 5070}
创建时间: 2018-12-09 14:08:44 大小:569.49 MB 文件数量:4 热度:6 最近下载:2022-04-23 07:05:41
    {"DOWNLOAD FROM HD-ELITE.ME.txt": 55, "Torrent_downloaded_from_Demonoid_-_www.demonoid.pw_.txt": 59, "Terra.Selvagem.2018.1080p.BluRay.x264-GECKOS.DUAL-GORDON.mkv": 8562422609, "Terra.Selvagem.2018.1080p.BluRay.x264-GECKOS.DUAL-GORDON.srt": 82536}
创建时间: 2018-12-09 14:23:14 大小:7.97 GB 文件数量:4 热度:13 最近下载:2025-05-13 20:33:01
    {"Terra.2007.DUAL.BDRip.XviD.AC3.-HELLYWOOD.avi": 1559844864, "Terra.2007.DUAL.BDRip.XviD.AC3.-HELLYWOOD.ukr.ac3": 229394983}
创建时间: 2018-12-09 16:53:33 大小:1.67 GB 文件数量:2 热度:4 最近下载:2022-04-23 06:34:45
    ... .jpg": 285717, "TerraNova_Stephen_Wallpaper_1920x1080.jpg": 833873}, "Terra.Nova.S01E01-02.Genesis.720p ... .HDTV.X264-DIMENSION.mkv": 1406363579, "Terra.Nova.S01E03.Instinct.720p.HDTV ... .HDTV.X264-DIMENSION.mkv": 1085300389, "Terra.Nova.S01E04.What.Remains.720p ...
创建时间: 2018-12-09 17:34:54 大小:5.11 GB 文件数量:15 热度:6 最近下载:2022-04-23 06:28:08